createdAt,value
2023-01-11T00:02:27.409Z,100728.50
2023-01-11T00:05:40.756Z,100721.63
2023-01-11T00:08:43.349Z,100725.13
2023-01-11T00:11:46.165Z,100737.94
2023-01-11T00:14:48.848Z,100752.88
2023-01-11T00:17:52.892Z,100756.59
2023-01-11T00:20:55.471Z,100761.66
2023-01-11T00:23:58.088Z,100754.78
2023-01-11T00:27:00.704Z,100759.06
2023-01-11T00:30:03.963Z,100760.53
2023-01-11T00:33:11.223Z,100760.88
2023-01-11T00:36:13.941Z,100761.09
2023-01-11T00:39:16.673Z,100772.22
2023-01-11T00:42:37.695Z,100788.66
2023-01-11T00:46:18.741Z,100785.03
2023-01-11T00:49:23.085Z,100794.59
2023-01-11T00:52:25.767Z,100803.81
2023-01-11T00:55:28.512Z,100807.63
2023-01-11T00:58:31.184Z,100800.44
2023-01-11T01:01:34.160Z,100803.91
2023-01-11T01:04:38.523Z,100811.69
2023-01-11T01:07:41.241Z,100809.53
2023-01-11T01:10:44.218Z,100808.63
2023-01-11T01:14:05.215Z,100813.72
2023-01-11T01:17:08.952Z,100799.88
2023-01-11T01:20:13.921Z,100795.50
2023-01-11T01:23:16.533Z,100795.72
2023-01-11T01:26:19.193Z,100802.44
2023-01-11T01:29:21.936Z,100800.22
2023-01-11T01:32:25.211Z,100806.28
2023-01-11T01:35:29.224Z,100798.41
2023-01-11T01:38:32.317Z,100798.41
2023-01-11T01:41:35.430Z,100806.03
2023-01-11T01:45:06.803Z,100810.34
2023-01-11T01:48:11.610Z,100809.53
2023-01-11T01:51:20.258Z,100807.75
2023-01-11T01:54:27.237Z,100800.88
2023-01-11T01:57:33.433Z,100778.97
2023-01-11T02:00:38.654Z,100742.53
2023-01-11T02:03:41.304Z,100730.84
2023-01-11T02:06:45.670Z,100724.59
2023-01-11T02:09:52.854Z,100755.69
2023-01-11T02:12:59.617Z,100765.94
2023-01-11T02:16:08.332Z,100754.69
2023-01-11T02:19:21.068Z,100772.22
2023-01-11T02:22:49.253Z,100782.13
2023-01-11T02:26:13.322Z,100785.03
2023-01-11T02:29:28.866Z,100787.50
2023-01-11T02:32:40.265Z,100791.44
2023-01-11T02:35:50.491Z,100778.84
2023-01-11T02:39:02.489Z,100768.50
2023-01-11T02:42:30.899Z,100773.47
2023-01-11T02:45:41.948Z,100786.59
2023-01-11T02:48:54.355Z,100795.47
2023-01-11T02:52:01.376Z,100795.34
2023-01-11T02:55:08.285Z,100804.00
2023-01-11T02:58:12.760Z,100804.47
2023-01-11T03:01:19.009Z,100788.06
2023-01-11T03:04:27.009Z,100770.97
2023-01-11T03:07:45.686Z,100773.25
2023-01-11T03:10:59.975Z,100802.44
2023-01-11T03:14:09.390Z,100804.72
2023-01-11T03:17:24.869Z,100823.34
2023-01-11T03:20:32.115Z,100828.53
2023-01-11T03:23:42.051Z,100824.94
2023-01-11T03:26:53.708Z,100834.28
2023-01-11T03:30:05.935Z,100843.94
2023-01-11T03:33:17.022Z,100862.03
2023-01-11T03:36:24.308Z,100852.81
2023-01-11T03:39:31.810Z,100847.06
2023-01-11T03:42:59.529Z,100856.47
2023-01-11T03:46:06.986Z,100862.91
2023-01-11T03:49:14.282Z,100863.78
2023-01-11T03:52:20.861Z,100869.16
2023-01-11T03:55:29.628Z,100865.66
2023-01-11T03:58:32.454Z,100860.81
2023-01-11T04:01:37.497Z,100843.81
2023-01-11T04:04:42.549Z,100825.81
2023-01-11T04:07:45.221Z,100826.94
2023-01-11T04:10:47.915Z,100831.78
2023-01-11T04:13:50.586Z,100824.25
2023-01-11T04:16:53.331Z,100824.41
2023-01-11T04:19:57.480Z,100815.34
2023-01-11T04:23:00.375Z,100822.88
2023-01-11T04:26:03.005Z,100835.41
2023-01-11T04:29:06.071Z,100836.88
2023-01-11T04:32:08.702Z,100850.38
2023-01-11T04:35:12.735Z,100857.41
2023-01-11T04:38:15.775Z,100854.88
2023-01-11T04:41:36.941Z,100857.00
2023-01-11T04:44:39.543Z,100866.59
2023-01-11T04:47:42.153Z,100863.53
2023-01-11T04:50:48.742Z,100866.03
2023-01-11T04:53:51.635Z,100860.38
2023-01-11T04:56:54.369Z,100857.81
2023-01-11T04:59:57.304Z,100861.03
2023-01-11T05:02:59.980Z,100860.25
2023-01-11T05:06:04.749Z,100873.31
2023-01-11T05:09:12.043Z,100867.53
2023-01-11T05:12:15.211Z,100880.41
2023-01-11T05:15:17.812Z,100872.63
2023-01-11T05:18:20.563Z,100870.25
2023-01-11T05:21:26.154Z,100885.09
2023-01-11T05:24:28.895Z,100891.25
2023-01-11T05:27:32.957Z,100894.75
2023-01-11T05:30:35.956Z,100902.78
2023-01-11T05:33:38.849Z,100912.88
2023-01-11T05:36:43.535Z,100915.56
2023-01-11T05:39:46.219Z,100921.97
2023-01-11T05:42:49.038Z,100918.41
2023-01-11T05:45:52.003Z,100929.94
2023-01-11T05:48:55.601Z,100925.09
2023-01-11T05:51:59.852Z,100916.31
2023-01-11T05:55:02.535Z,100921.53
2023-01-11T05:58:06.795Z,100927.63
2023-01-11T06:01:12.941Z,100933.53
2023-01-11T06:04:15.774Z,100928.34
2023-01-11T06:07:19.747Z,100921.78
2023-01-11T06:10:22.666Z,100939.53
2023-01-11T06:13:28.644Z,100934.53
2023-01-11T06:16:31.369Z,100940.97
2023-01-11T06:19:34.026Z,100942.78
2023-01-11T06:22:38.176Z,100942.88
2023-01-11T06:25:40.947Z,100947.06
2023-01-11T06:28:50.600Z,100949.44
2023-01-11T06:32:02.200Z,100947.56
2023-01-11T06:35:10.858Z,100942.97
2023-01-11T06:38:16.691Z,100946.53
2023-01-11T06:41:19.837Z,100947.00
2023-01-11T06:44:22.600Z,100955.09
2023-01-11T06:47:25.337Z,100967.22
2023-01-11T06:50:28.672Z,100975.56
2023-01-11T06:53:32.804Z,100966.28
2023-01-11T06:56:38.292Z,100956.75
2023-01-11T06:59:41.892Z,100967.41
2023-01-11T07:02:45.091Z,100967.34
2023-01-11T07:05:47.962Z,100969.56
2023-01-11T07:08:52.668Z,100970.25
2023-01-11T07:11:55.459Z,100967.06
2023-01-11T07:14:58.308Z,100952.88
2023-01-11T07:18:01.168Z,100961.53
2023-01-11T07:21:04.327Z,100968.09
2023-01-11T07:24:08.594Z,100970.72
2023-01-11T07:27:11.993Z,100970.91
2023-01-11T07:30:14.936Z,100978.72
2023-01-11T07:33:18.940Z,100985.03
2023-01-11T07:36:21.713Z,100988.97
2023-01-11T07:39:38.539Z,100992.88
2023-01-11T07:43:07.926Z,100994.50
2023-01-11T07:46:10.750Z,100973.09
2023-01-11T07:49:13.645Z,100983.72
2023-01-11T07:52:16.530Z,100979.63
2023-01-11T07:55:20.835Z,100967.06
2023-01-11T07:58:24.125Z,100964.72
2023-01-11T08:01:31.326Z,100962.94
2023-01-11T08:05:07.234Z,100958.66
2023-01-11T08:08:12.656Z,100971.56
2023-01-11T08:11:35.180Z,100978.75
2023-01-11T08:14:40.988Z,100994.84
2023-01-11T08:17:43.829Z,101003.53
2023-01-11T08:20:47.736Z,101004.19
2023-01-11T08:23:53.223Z,101011.47
2023-01-11T08:26:57.554Z,101009.41
2023-01-11T08:30:00.427Z,101006.31
2023-01-11T08:33:04.219Z,101013.63
2023-01-11T08:36:10.374Z,101014.16
2023-01-11T08:39:13.613Z,101005.19
2023-01-11T08:42:17.759Z,101002.09
2023-01-11T08:45:22.672Z,101013.63
2023-01-11T08:48:25.522Z,101012.97
2023-01-11T08:51:28.397Z,101017.75
2023-01-11T08:54:31.458Z,101026.25
2023-01-11T08:57:36.651Z,101020.94
2023-01-11T09:00:48.203Z,101018.81
2023-01-11T09:03:50.902Z,101019.81
2023-01-11T09:06:53.977Z,101017.16
2023-01-11T09:09:57.127Z,101022.41
2023-01-11T09:13:01.620Z,101031.75
2023-01-11T09:16:05.016Z,101035.13
2023-01-11T09:19:07.985Z,101035.34
2023-01-11T09:22:11.674Z,101036.34
2023-01-11T09:25:15.038Z,101038.59
2023-01-11T09:28:19.427Z,101054.34
2023-01-11T09:31:25.595Z,101054.88
2023-01-11T09:34:28.413Z,101055.75
2023-01-11T09:37:31.168Z,101041.56
2023-01-11T09:40:43.102Z,101054.28
2023-01-11T09:43:55.377Z,101044.66
2023-01-11T09:47:12.304Z,101043.09
2023-01-11T09:50:20.542Z,101049.91
2023-01-11T09:53:32.257Z,101046.47
2023-01-11T09:57:04.499Z,101054.06
2023-01-11T10:00:17.506Z,101044.47
2023-01-11T10:04:07.070Z,101045.09
2023-01-11T10:07:32.189Z,101026.53
2023-01-11T10:18:29.801Z,101022.97
2023-01-11T10:18:31.356Z,101029.94
2023-01-11T10:21:44.257Z,101029.28
2023-01-11T10:24:51.887Z,101005.84
2023-01-11T10:27:59.189Z,100999.06
2023-01-11T10:31:30.501Z,101005.25
2023-01-11T10:35:10.820Z,101028.78
2023-01-11T10:38:44.607Z,101031.03
2023-01-11T10:42:01.450Z,101024.06
2023-01-11T10:45:12.233Z,101035.81
2023-01-11T10:48:23.665Z,101037.31
2023-01-11T10:51:32.413Z,101036.53
2023-01-11T10:54:37.452Z,101026.78
2023-01-11T10:58:01.240Z,101043.81
2023-01-11T11:01:18.833Z,101039.03
2023-01-11T11:04:43.502Z,101037.38
2023-01-11T11:07:52.988Z,101031.13
2023-01-11T11:11:01.187Z,101018.22
2023-01-11T11:14:13.837Z,101024.38
2023-01-11T11:17:27.350Z,101039.19
2023-01-11T11:20:33.151Z,101032.25
2023-01-11T11:23:38.188Z,101019.38
2023-01-11T11:26:45.387Z,101014.38
2023-01-11T11:29:54.326Z,101000.59
2023-01-11T11:33:01.526Z,100988.72
2023-01-11T11:36:07.449Z,100988.44
2023-01-11T11:39:20.671Z,100997.69
2023-01-11T11:42:24.292Z,100994.78
2023-01-11T11:45:28.382Z,100996.13
2023-01-11T11:48:33.558Z,101008.00
2023-01-11T11:51:36.704Z,101012.56
2023-01-11T11:54:48.828Z,101004.16
2023-01-11T11:57:51.521Z,101012.19
2023-01-11T12:00:54.503Z,101018.44
2023-01-11T12:04:02.053Z,101005.22
2023-01-11T12:07:09.051Z,101004.31
2023-01-11T12:10:17.369Z,101004.47
2023-01-11T12:13:32.566Z,101005.72
2023-01-11T12:16:39.491Z,101005.81
2023-01-11T12:19:45.227Z,101006.81
2023-01-11T12:22:48.554Z,101009.06
2023-01-11T12:26:10.860Z,101019.22
2023-01-11T12:29:35.337Z,101013.84
2023-01-11T12:33:05.641Z,100991.47
2023-01-11T12:36:20.163Z,101008.31
2023-01-11T12:39:35.927Z,100999.63
2023-01-11T12:42:56.017Z,100990.34
2023-01-11T12:46:08.308Z,100995.13
2023-01-11T12:49:23.819Z,100993.97
2023-01-11T12:52:46.908Z,101001.41
2023-01-11T12:56:00.652Z,100996.72
2023-01-11T12:59:24.012Z,100993.16
2023-01-11T13:02:47.104Z,100998.25
2023-01-11T13:06:01.422Z,100996.31
2023-01-11T13:09:11.684Z,101001.38
2023-01-11T13:12:32.281Z,100999.97
2023-01-11T13:15:45.083Z,101013.16
2023-01-11T13:18:59.115Z,101017.72
2023-01-11T13:22:05.265Z,101013.06
2023-01-11T13:25:23.172Z,101015.94
2023-01-11T13:28:31.206Z,101014.03
2023-01-11T13:31:36.389Z,101022.13
2023-01-11T13:34:47.262Z,101039.16
2023-01-11T13:37:57.080Z,101039.25
2023-01-11T13:41:09.612Z,101035.72
2023-01-11T13:44:19.163Z,101036.97
2023-01-11T13:47:29.226Z,101042.94
2023-01-11T13:50:38.548Z,101041.91
2023-01-11T13:53:51.715Z,101039.22
2023-01-11T13:57:00.767Z,101040.75
2023-01-11T14:00:14.961Z,101039.00
2023-01-11T14:03:28.201Z,101037.81
2023-01-11T14:06:45.636Z,101047.00
2023-01-11T14:10:03.575Z,101043.00
2023-01-11T14:14:04.305Z,101038.03
2023-01-11T14:17:27.709Z,101047.28
2023-01-11T14:20:37.934Z,101051.53
2023-01-11T14:23:47.976Z,101054.25
2023-01-11T14:27:06.626Z,101050.97
2023-01-11T14:30:25.868Z,101057.19
2023-01-11T14:34:07.117Z,101058.47
2023-01-11T14:37:56.141Z,101067.72
2023-01-11T14:41:14.991Z,101064.03
2023-01-11T14:44:53.803Z,101064.66
2023-01-11T14:48:22.256Z,101065.97
2023-01-11T14:51:34.126Z,101082.94
2023-01-11T14:54:43.654Z,101065.94
2023-01-11T14:58:02.900Z,101070.25
2023-01-11T15:01:11.134Z,101070.75
2023-01-11T15:04:22.393Z,101073.38
2023-01-11T15:07:33.558Z,101070.28
2023-01-11T15:10:52.146Z,101070.88
2023-01-11T15:13:57.753Z,101071.47
2023-01-11T15:17:21.462Z,101066.22
2023-01-11T15:20:25.124Z,101069.72
2023-01-11T15:23:36.272Z,101062.56
2023-01-11T15:26:49.758Z,101074.34
2023-01-11T15:29:55.682Z,101061.19
2023-01-11T15:33:28.368Z,101070.81
2023-01-11T15:36:53.867Z,101062.94
2023-01-11T15:39:59.155Z,101063.81
2023-01-11T15:43:26.051Z,101064.84
2023-01-11T15:47:08.275Z,101072.34
2023-01-11T15:50:49.565Z,101068.84
2023-01-11T15:54:18.068Z,101066.47
2023-01-11T15:57:44.127Z,101065.09
2023-01-11T16:01:15.765Z,101084.66
2023-01-11T16:04:28.417Z,101092.13
2023-01-11T16:07:40.500Z,101105.13
2023-01-11T16:10:54.134Z,101091.66
2023-01-11T16:14:21.194Z,101093.00
2023-01-11T16:17:26.400Z,101088.47
2023-01-11T16:20:29.912Z,101098.41
2023-01-11T16:23:34.190Z,101093.03
2023-01-11T16:26:39.903Z,101106.72
2023-01-11T16:29:49.786Z,101112.34
2023-01-11T16:33:12.813Z,101112.47
2023-01-11T16:36:18.972Z,101113.81
2023-01-11T16:39:24.519Z,101122.34
2023-01-11T16:42:32.781Z,101124.09
2023-01-11T16:45:40.789Z,101137.63
2023-01-11T16:48:44.914Z,101136.44
2023-01-11T16:51:55.952Z,101140.28
2023-01-11T16:55:02.931Z,101142.38
2023-01-11T16:58:07.730Z,101152.69
2023-01-11T17:01:12.410Z,101145.06
2023-01-11T17:04:27.123Z,101143.34
2023-01-11T17:07:30.569Z,101145.13
2023-01-11T17:10:33.331Z,101147.06
2023-01-11T17:13:58.422Z,101153.41
2023-01-11T17:17:03.650Z,101142.94
2023-01-11T17:20:18.610Z,101144.88
2023-01-11T17:23:21.595Z,101153.75
2023-01-11T17:26:27.459Z,101152.97
2023-01-11T17:29:40.283Z,101155.84
2023-01-11T17:32:45.680Z,101145.38
2023-01-11T17:35:49.918Z,101145.25
2023-01-11T17:38:54.928Z,101161.38
2023-01-11T17:42:19.483Z,101170.09
2023-01-11T17:45:26.964Z,101176.25
2023-01-11T17:48:29.995Z,101167.06
2023-01-11T17:51:34.950Z,101162.44
2023-01-11T17:54:38.899Z,101171.31
2023-01-11T17:57:41.656Z,101166.09
2023-01-11T18:00:48.377Z,101167.88
2023-01-11T18:03:53.219Z,101170.38
2023-01-11T18:07:06.295Z,101168.34
2023-01-11T18:10:18.171Z,101175.47
2023-01-11T18:13:28.259Z,101170.56
2023-01-11T18:16:31.417Z,101167.38
2023-01-11T18:19:38.505Z,101166.91
2023-01-11T18:22:55.945Z,101159.44
2023-01-11T18:26:26.774Z,101163.72
2023-01-11T18:29:47.993Z,101155.81
2023-01-11T18:32:50.685Z,101160.84
2023-01-11T18:35:55.140Z,101172.69
2023-01-11T18:39:01.826Z,101165.44
2023-01-11T18:42:08.224Z,101156.25
2023-01-11T18:45:12.459Z,101159.72
2023-01-11T18:48:16.011Z,101158.09
2023-01-11T18:51:27.844Z,101165.22
2023-01-11T18:54:31.946Z,101155.63
2023-01-11T18:57:35.984Z,101169.53
2023-01-11T19:00:41.010Z,101175.88
2023-01-11T19:03:45.991Z,101179.84
2023-01-11T19:06:49.079Z,101181.75
2023-01-11T19:09:56.714Z,101187.78
2023-01-11T19:13:00.993Z,101196.03
2023-01-11T19:16:04.430Z,101180.19
2023-01-11T19:19:07.081Z,101185.72
2023-01-11T19:22:11.345Z,101191.84
2023-01-11T19:25:15.536Z,101194.34
2023-01-11T19:28:19.282Z,101198.16
2023-01-11T19:31:22.081Z,101199.88
2023-01-11T19:34:25.268Z,101210.13
2023-01-11T19:37:30.029Z,101208.50
2023-01-11T19:40:34.225Z,101214.88
2023-01-11T19:43:37.068Z,101222.25
2023-01-11T19:46:39.777Z,101213.03
2023-01-11T19:49:43.463Z,101211.59
2023-01-11T19:52:46.879Z,101214.44
2023-01-11T19:55:50.903Z,101217.25
2023-01-11T19:58:53.642Z,101225.16
2023-01-11T20:01:56.508Z,101225.56
2023-01-11T20:04:59.557Z,101226.38
2023-01-11T20:08:02.271Z,101232.41
2023-01-11T20:11:08.764Z,101236.16
2023-01-11T20:14:11.906Z,101234.56
2023-01-11T20:17:19.226Z,101230.16
2023-01-11T20:20:21.940Z,101226.13
2023-01-11T20:23:26.146Z,101231.25
2023-01-11T20:26:34.193Z,101235.97
2023-01-11T20:29:37.259Z,101235.88
2023-01-11T20:32:42.493Z,101249.88
2023-01-11T20:36:11.049Z,101238.81
2023-01-11T20:39:14.151Z,101248.69
2023-01-11T20:42:18.363Z,101251.44
2023-01-11T20:45:21.080Z,101237.09
2023-01-11T20:48:24.199Z,101238.28
2023-01-11T20:51:27.028Z,101250.59
2023-01-11T20:54:29.749Z,101250.50
2023-01-11T20:57:33.778Z,101257.59
2023-01-11T21:00:36.399Z,101236.59
2023-01-11T21:03:39.053Z,101244.78
2023-01-11T21:06:43.455Z,101242.78
2023-01-11T21:09:46.199Z,101242.28
2023-01-11T21:12:51.990Z,101241.53
2023-01-11T21:15:54.674Z,101239.38
2023-01-11T21:18:59.009Z,101238.66
2023-01-11T21:22:01.830Z,101235.88
2023-01-11T21:25:05.230Z,101236.03
2023-01-11T21:28:09.289Z,101232.13
2023-01-11T21:31:12.751Z,101230.75
2023-01-11T21:34:15.539Z,101221.34
2023-01-11T21:37:21.006Z,101232.88
2023-01-11T21:40:26.974Z,101232.44
2023-01-11T21:43:31.468Z,101232.28
2023-01-11T21:46:34.438Z,101243.63
2023-01-11T21:49:37.398Z,101255.72
2023-01-11T21:52:40.084Z,101255.94
2023-01-11T21:55:42.786Z,101254.53
2023-01-11T21:58:46.941Z,101246.94
2023-01-11T22:01:49.806Z,101251.19
2023-01-11T22:04:57.626Z,101252.16
2023-01-11T22:08:00.394Z,101251.72
2023-01-11T22:11:04.947Z,101253.16
2023-01-11T22:14:09.460Z,101252.22
2023-01-11T22:17:12.186Z,101258.19
2023-01-11T22:20:17.613Z,101258.56
2023-01-11T22:23:20.575Z,101253.50
2023-01-11T22:26:24.173Z,101252.88
2023-01-11T22:29:29.803Z,101255.56
2023-01-11T22:32:32.636Z,101248.59
2023-01-11T22:35:35.310Z,101250.34
2023-01-11T22:38:38.371Z,101252.72
2023-01-11T22:41:41.241Z,101248.59
2023-01-11T22:44:46.331Z,101254.91
2023-01-11T22:47:48.995Z,101260.91
2023-01-11T22:50:51.995Z,101271.06
2023-01-11T22:53:55.919Z,101261.56
2023-01-11T22:56:58.594Z,101261.56
2023-01-11T23:00:04.649Z,101266.44
2023-01-11T23:03:08.673Z,101271.63
2023-01-11T23:06:12.505Z,101275.91
2023-01-11T23:09:16.788Z,101275.91
2023-01-11T23:12:38.359Z,101281.13
2023-01-11T23:15:42.518Z,101273.88
2023-01-11T23:18:46.061Z,101276.13
2023-01-11T23:21:49.268Z,101281.66
2023-01-11T23:24:51.876Z,101281.94
2023-01-11T23:27:54.603Z,101274.06
2023-01-11T23:30:58.997Z,101275.22
2023-01-11T23:34:03.627Z,101271.59
2023-01-11T23:37:06.375Z,101273.16
2023-01-11T23:40:10.367Z,101272.63
2023-01-11T23:43:13.093Z,101276.06
2023-01-11T23:46:36.076Z,101274.19
2023-01-11T23:49:38.820Z,101273.09
2023-01-11T23:52:41.524Z,101275.59
2023-01-11T23:55:54.483Z,101275.94
2023-01-11T23:58:58.308Z,101277.81
